createdAt,value
2018-12-23T05:00:31.991Z,0.00
2018-12-23T05:01:31.980Z,0.00
2018-12-23T05:02:31.955Z,0.00
2018-12-23T05:03:31.942Z,0.00
2018-12-23T05:04:31.930Z,0.00
2018-12-23T05:05:31.920Z,0.00
2018-12-23T05:06:31.924Z,0.00
2018-12-23T05:07:31.897Z,0.00
2018-12-23T05:08:31.886Z,0.00
2018-12-23T05:09:31.875Z,0.00
2018-12-23T05:10:31.874Z,0.00
2018-12-23T05:11:31.867Z,0.00
2018-12-23T05:12:31.944Z,0.00
2018-12-23T05:13:34.202Z,0.00
2018-12-23T05:14:31.824Z,0.00
2018-12-23T05:15:31.807Z,0.00
2018-12-23T05:16:31.806Z,0.00
2018-12-23T05:17:31.783Z,0.00
2018-12-23T05:18:31.776Z,0.00
2018-12-23T05:19:31.762Z,0.00
2018-12-23T05:20:31.750Z,0.00
2018-12-23T05:21:31.763Z,0.00
2018-12-23T05:22:31.728Z,0.00
2018-12-23T05:23:31.720Z,0.00
2018-12-23T05:24:31.706Z,0.00
2018-12-23T05:25:31.694Z,0.00
2018-12-23T05:26:31.698Z,0.00
2018-12-23T05:27:31.671Z,0.00
2018-12-23T05:28:31.663Z,0.00
2018-12-23T05:29:31.648Z,0.00
2018-12-23T05:30:31.639Z,0.00
2018-12-23T05:31:31.645Z,0.00
2018-12-23T05:32:31.614Z,0.00
2018-12-23T05:33:31.603Z,0.00
2018-12-23T05:34:31.591Z,0.00
2018-12-23T05:35:31.581Z,0.00
2018-12-23T05:36:31.581Z,0.00
2018-12-23T05:37:31.558Z,0.00
2018-12-23T05:38:31.546Z,0.00
2018-12-23T05:39:31.535Z,0.00
2018-12-23T05:40:31.527Z,0.00
2018-12-23T05:41:31.526Z,0.00
2018-12-23T05:42:31.502Z,0.00
2018-12-23T05:43:31.495Z,0.00
2018-12-23T05:44:31.478Z,0.00
2018-12-23T05:45:31.493Z,0.00
2018-12-23T05:46:31.478Z,0.00
2018-12-23T05:47:31.445Z,0.00
2018-12-23T05:48:31.438Z,0.00
2018-12-23T05:49:31.424Z,0.00
2018-12-23T05:50:31.411Z,0.00
2018-12-23T05:51:31.415Z,0.00
2018-12-23T05:52:31.388Z,0.00
2018-12-23T05:53:31.378Z,0.00
2018-12-23T05:54:31.369Z,0.00
2018-12-23T05:55:31.357Z,0.00
2018-12-23T05:56:31.354Z,0.00
2018-12-23T05:57:31.343Z,0.00
2018-12-23T05:58:31.333Z,0.00
2018-12-23T05:59:31.307Z,0.00
2018-12-23T06:00:31.294Z,0.00
2018-12-23T06:01:31.301Z,0.00
2018-12-23T06:02:31.273Z,0.00
2018-12-23T06:03:31.261Z,0.00
2018-12-23T06:04:31.248Z,0.00
2018-12-23T06:05:31.237Z,0.00
2018-12-23T06:06:31.238Z,0.00
2018-12-23T06:07:31.215Z,0.00
2018-12-23T06:08:31.206Z,0.00
2018-12-23T06:09:31.199Z,0.00
2018-12-23T06:10:31.183Z,0.00
2018-12-23T06:11:31.187Z,0.00
2018-12-23T06:12:31.161Z,0.00
2018-12-23T06:13:31.148Z,0.00
2018-12-23T06:14:31.140Z,0.00
2018-12-23T06:15:31.129Z,0.00
2018-12-23T06:16:31.131Z,0.00
2018-12-23T06:17:31.102Z,0.00
2018-12-23T06:18:31.091Z,0.00
2018-12-23T06:19:31.080Z,0.00
2018-12-23T06:20:31.073Z,0.00
2018-12-23T06:21:31.073Z,0.00
2018-12-23T06:22:31.047Z,0.00
2018-12-23T06:23:31.035Z,0.00
2018-12-23T06:24:31.026Z,0.00
2018-12-23T06:25:31.012Z,0.00
2018-12-23T06:26:31.016Z,0.00
2018-12-23T06:27:30.992Z,0.00
2018-12-23T06:28:30.978Z,0.00
2018-12-23T06:29:30.979Z,0.00
2018-12-23T06:30:30.954Z,0.00
2018-12-23T06:31:30.958Z,0.00
2018-12-23T06:32:30.933Z,0.00
2018-12-23T06:33:30.923Z,0.00
2018-12-23T06:34:30.911Z,0.00
2018-12-23T06:35:30.898Z,0.00
2018-12-23T06:36:30.888Z,0.00
2018-12-23T06:37:30.895Z,0.00
2018-12-23T06:38:30.864Z,0.00
2018-12-23T06:39:30.858Z,0.00
2018-12-23T06:40:30.847Z,0.00
2018-12-23T06:41:30.830Z,0.00
2018-12-23T06:42:30.830Z,0.00
2018-12-23T06:43:30.807Z,0.00
2018-12-23T06:44:30.799Z,0.00
2018-12-23T06:45:30.785Z,0.00
2018-12-23T06:46:30.774Z,0.00
2018-12-23T06:47:30.775Z,0.00
2018-12-23T06:48:30.750Z,0.00
2018-12-23T06:49:30.740Z,4.00
2018-12-23T06:50:30.730Z,4.00
2018-12-23T06:51:30.714Z,4.00
2018-12-23T06:52:30.723Z,0.00
2018-12-23T06:53:30.693Z,0.00
2018-12-23T06:54:30.678Z,0.00
2018-12-23T06:55:30.669Z,4.00
2018-12-23T06:56:30.657Z,4.00
2018-12-23T06:57:30.665Z,4.00
2018-12-23T06:58:30.633Z,4.00
2018-12-23T06:59:30.626Z,0.00
2018-12-23T07:00:30.612Z,0.00
2018-12-23T07:01:30.599Z,4.00
2018-12-23T07:02:30.609Z,8.00
2018-12-23T07:03:30.579Z,8.00
2018-12-23T07:04:30.567Z,8.00
2018-12-23T07:05:30.542Z,8.00
2018-12-23T07:06:30.544Z,12.00
2018-12-23T07:07:30.557Z,16.00
2018-12-23T07:08:30.522Z,20.00
2018-12-23T07:09:30.509Z,24.00
2018-12-23T07:10:30.498Z,20.00
2018-12-23T07:11:30.495Z,20.00
2018-12-23T07:12:30.490Z,20.00
2018-12-23T07:13:30.464Z,24.00
2018-12-23T07:14:30.454Z,32.00
2018-12-23T07:15:30.441Z,44.00
2018-12-23T07:16:30.430Z,40.00
2018-12-23T07:17:30.425Z,40.00
2018-12-23T07:18:30.408Z,36.00
2018-12-23T07:19:30.396Z,36.00
2018-12-23T07:20:30.388Z,40.00
2018-12-23T07:21:30.374Z,48.00
2018-12-23T07:22:30.377Z,52.00
2018-12-23T07:23:30.352Z,56.00
2018-12-23T07:24:30.342Z,64.00
2018-12-23T07:25:30.329Z,72.00
2018-12-23T07:26:30.317Z,80.00
2018-12-23T07:27:30.318Z,92.00
2018-12-23T07:28:30.295Z,116.00
2018-12-23T07:29:30.284Z,140.00
2018-12-23T07:30:30.269Z,140.00
2018-12-23T07:31:30.261Z,132.00
2018-12-23T07:32:30.272Z,136.00
2018-12-23T07:33:30.239Z,148.00
2018-12-23T07:34:30.229Z,164.00
2018-12-23T07:35:30.218Z,148.00
2018-12-23T07:36:30.210Z,164.00
2018-12-23T07:37:30.205Z,164.00
2018-12-23T07:38:30.184Z,164.00
2018-12-23T07:39:30.208Z,128.00
2018-12-23T07:40:30.160Z,148.00
2018-12-23T07:41:30.148Z,168.00
2018-12-23T07:42:30.154Z,160.00
2018-12-23T07:43:30.130Z,184.00
2018-12-23T07:44:30.111Z,180.00
2018-12-23T07:45:30.098Z,168.00
2018-12-23T07:46:30.088Z,144.00
2018-12-23T07:47:30.092Z,176.00
2018-12-23T07:48:30.064Z,204.00
2018-12-23T07:49:30.054Z,168.00
2018-12-23T07:50:30.042Z,156.00
2018-12-23T07:51:30.035Z,224.00
2018-12-23T07:52:30.039Z,344.00
2018-12-23T07:53:30.009Z,332.00
2018-12-23T07:54:30.001Z,368.00
2018-12-23T07:55:29.996Z,412.00
2018-12-23T07:56:29.974Z,460.00
2018-12-23T07:57:29.975Z,528.00
2018-12-23T07:58:29.952Z,580.00
2018-12-23T07:59:29.940Z,576.00
2018-12-23T08:00:29.930Z,648.00
2018-12-23T08:01:29.918Z,680.00
2018-12-23T08:02:29.919Z,628.00
2018-12-23T08:03:29.895Z,628.00
2018-12-23T08:04:29.885Z,580.00
2018-12-23T08:05:29.939Z,532.00
2018-12-23T08:06:29.863Z,592.00
2018-12-23T08:07:36.148Z,576.00
2018-12-23T08:08:30.838Z,540.00
2018-12-23T08:09:29.827Z,612.00
2018-12-23T08:10:29.930Z,680.00
2018-12-23T08:11:29.804Z,808.00
2018-12-23T08:12:29.806Z,816.00
2018-12-23T08:13:29.783Z,904.00
2018-12-23T08:14:29.775Z,972.00
2018-12-23T08:15:29.762Z,1076.00
2018-12-23T08:16:29.748Z,1072.00
2018-12-23T08:17:29.749Z,1132.00
2018-12-23T08:18:29.731Z,1176.00
2018-12-23T08:19:29.715Z,1176.00
2018-12-23T08:20:29.709Z,1192.00
2018-12-23T08:21:29.692Z,1196.00
2018-12-23T08:22:29.694Z,1188.00
2018-12-23T08:23:29.668Z,1200.00
2018-12-23T08:24:29.660Z,1240.00
2018-12-23T08:25:35.570Z,1240.00
2018-12-23T08:26:30.632Z,1196.00
2018-12-23T08:27:29.637Z,1148.00
2018-12-23T08:28:29.608Z,1052.00
2018-12-23T08:29:29.598Z,1052.00
2018-12-23T08:30:29.586Z,1116.00
2018-12-23T08:31:29.576Z,972.00
2018-12-23T08:32:29.584Z,776.00
2018-12-23T08:33:29.552Z,708.00
2018-12-23T08:34:29.541Z,604.00
2018-12-23T08:35:29.537Z,612.00
2018-12-23T08:36:29.519Z,688.00
2018-12-23T08:37:29.546Z,828.00
2018-12-23T08:38:29.491Z,800.00
2018-12-23T08:39:29.485Z,656.00
2018-12-23T08:40:29.475Z,680.00
2018-12-23T08:41:29.512Z,968.00
2018-12-23T08:42:29.450Z,1224.00
2018-12-23T08:43:29.452Z,1276.00
2018-12-23T08:44:29.427Z,1152.00
2018-12-23T08:45:29.417Z,992.00
2018-12-23T08:46:29.405Z,936.00
2018-12-23T08:47:29.395Z,976.00
2018-12-23T08:48:29.401Z,1112.00
2018-12-23T08:49:29.373Z,996.00
2018-12-23T08:50:29.361Z,1208.00
2018-12-23T08:51:29.353Z,1200.00
2018-12-23T08:52:29.337Z,1328.00
2018-12-23T08:53:29.342Z,1612.00
2018-12-23T08:54:29.317Z,1712.00
2018-12-23T08:55:29.305Z,1660.00
2018-12-23T08:56:29.292Z,1676.00
2018-12-23T08:57:29.281Z,1608.00
2018-12-23T08:58:29.282Z,1712.00
2018-12-23T08:59:29.259Z,1832.00
2018-12-23T09:00:29.296Z,1992.00
2018-12-23T09:01:29.235Z,2048.00
2018-12-23T09:02:29.229Z,1996.00
2018-12-23T09:03:29.225Z,1864.00
2018-12-23T09:04:29.205Z,1724.00
2018-12-23T09:05:29.199Z,1740.00
2018-12-23T09:06:29.180Z,1892.00
2018-12-23T09:07:29.169Z,1968.00
2018-12-23T09:08:29.169Z,1924.00
2018-12-23T09:09:29.147Z,1704.00
2018-12-23T09:10:29.155Z,1608.00
2018-12-23T09:11:29.123Z,1464.00
2018-12-23T09:12:29.116Z,1240.00
2018-12-23T09:13:29.121Z,1108.00
2018-12-23T09:14:29.094Z,1020.00
2018-12-23T09:15:29.080Z,864.00
2018-12-23T09:16:29.066Z,796.00
2018-12-23T09:17:29.055Z,820.00
2018-12-23T09:18:29.055Z,832.00
2018-12-23T09:19:29.171Z,1004.00
2018-12-23T09:20:29.018Z,1148.00
2018-12-23T09:21:29.010Z,1280.00
2018-12-23T09:22:28.995Z,1636.00
2018-12-23T09:23:29.000Z,1640.00
2018-12-23T09:24:28.973Z,1684.00
2018-12-23T09:25:28.962Z,1484.00
2018-12-23T09:26:28.953Z,1660.00
2018-12-23T09:27:28.938Z,1612.00
2018-12-23T09:28:28.947Z,2152.00
2018-12-23T09:29:28.917Z,2116.00
2018-12-23T09:30:28.921Z,2272.00
2018-12-23T09:31:28.906Z,2088.00
2018-12-23T09:32:28.881Z,2236.00
2018-12-23T09:33:28.890Z,2236.00
2018-12-23T09:34:28.860Z,2276.00
2018-12-23T09:35:28.857Z,2408.00
2018-12-23T09:36:28.844Z,2548.00
2018-12-23T09:37:28.826Z,2600.00
2018-12-23T09:38:28.834Z,2524.00
2018-12-23T09:39:28.802Z,2444.00
2018-12-23T09:40:28.791Z,2440.00
2018-12-23T09:41:28.780Z,2380.00
2018-12-23T09:42:28.770Z,2284.00
2018-12-23T09:43:28.769Z,2184.00
2018-12-23T09:44:28.745Z,2080.00
2018-12-23T09:45:28.736Z,1896.00
2018-12-23T09:46:28.724Z,1824.00
2018-12-23T09:47:28.713Z,1780.00
2018-12-23T09:48:28.713Z,2048.00
2018-12-23T09:49:28.693Z,2396.00
2018-12-23T09:50:28.677Z,2320.00
2018-12-23T09:51:28.667Z,2096.00
2018-12-23T09:52:28.661Z,1912.00
2018-12-23T09:53:28.660Z,1808.00
2018-12-23T09:54:28.633Z,1528.00
2018-12-23T09:55:28.625Z,1344.00
2018-12-23T09:56:28.610Z,1324.00
2018-12-23T09:57:28.619Z,1580.00
2018-12-23T09:58:28.601Z,1948.00
2018-12-23T09:59:28.582Z,2052.00
2018-12-23T10:00:28.573Z,2148.00
2018-12-23T10:01:28.603Z,2032.00
2018-12-23T10:02:28.545Z,2348.00
2018-12-23T10:03:28.629Z,2428.00
2018-12-23T10:04:28.522Z,2296.00
2018-12-23T10:05:28.505Z,2316.00
2018-12-23T10:06:28.503Z,2460.00
2018-12-23T10:07:28.484Z,2536.00
2018-12-23T10:08:28.492Z,2564.00
2018-12-23T10:09:28.466Z,2548.00
2018-12-23T10:10:28.768Z,2476.00
2018-12-23T10:11:28.437Z,2468.00
2018-12-23T10:12:28.430Z,2460.00
2018-12-23T10:13:28.431Z,2416.00
2018-12-23T10:14:28.411Z,2468.00
2018-12-23T10:15:28.394Z,2500.00
2018-12-23T10:16:28.382Z,2528.00
2018-12-23T10:17:28.369Z,2520.00
2018-12-23T10:18:28.384Z,2508.00
2018-12-23T10:19:28.347Z,2484.00
2018-12-23T10:20:28.337Z,2516.00
2018-12-23T10:21:28.326Z,2532.00
2018-12-23T10:22:28.318Z,2580.00
2018-12-23T10:23:28.315Z,2616.00
2018-12-23T10:24:28.292Z,2620.00
2018-12-23T10:25:28.284Z,2636.00
2018-12-23T10:26:28.268Z,2700.00
2018-12-23T10:27:28.261Z,2728.00
2018-12-23T10:28:28.257Z,2768.00
2018-12-23T10:29:28.507Z,2760.00
2018-12-23T10:30:28.234Z,2696.00
2018-12-23T10:31:28.212Z,2560.00
2018-12-23T10:32:28.202Z,2464.00
2018-12-23T10:33:28.205Z,2340.00
2018-12-23T10:34:28.180Z,2560.00
2018-12-23T10:35:28.167Z,2316.00
2018-12-23T10:36:28.156Z,2408.00
2018-12-23T10:37:28.145Z,2380.00
2018-12-23T10:38:28.152Z,2556.00
2018-12-23T10:39:28.121Z,2716.00
2018-12-23T10:40:28.114Z,2740.00
2018-12-23T10:41:28.103Z,2812.00
2018-12-23T10:42:28.097Z,2864.00
2018-12-23T10:43:28.114Z,2892.00
2018-12-23T10:44:28.065Z,2812.00
2018-12-23T10:45:28.054Z,2708.00
2018-12-23T10:46:28.047Z,2700.00
2018-12-23T10:47:28.031Z,2524.00
2018-12-23T10:48:28.100Z,2424.00
2018-12-23T10:49:28.026Z,2468.00
2018-12-23T10:50:27.997Z,2420.00
2018-12-23T10:51:27.986Z,2080.00
2018-12-23T10:52:27.978Z,2108.00
2018-12-23T10:53:27.964Z,2516.00
2018-12-23T10:54:27.969Z,2320.00
2018-12-23T10:55:27.942Z,2052.00
2018-12-23T10:56:27.995Z,1860.00
2018-12-23T10:57:27.920Z,1868.00
2018-12-23T10:58:27.908Z,2072.00
2018-12-23T10:59:27.914Z,2036.00
2018-12-23T11:00:27.889Z,1752.00
2018-12-23T11:01:27.869Z,1836.00
2018-12-23T11:02:27.863Z,1596.00
2018-12-23T11:03:27.847Z,1864.00
2018-12-23T11:04:27.859Z,1668.00
2018-12-23T11:05:27.825Z,1804.00
2018-12-23T11:06:27.813Z,1824.00
2018-12-23T11:07:27.802Z,1576.00
2018-12-23T11:08:27.785Z,1536.00
2018-12-23T11:09:27.791Z,1756.00
2018-12-23T11:10:27.769Z,1980.00
2018-12-23T11:11:27.759Z,2036.00
2018-12-23T11:12:27.745Z,2116.00
2018-12-23T11:13:27.734Z,2048.00
2018-12-23T11:14:27.741Z,1980.00
2018-12-23T11:15:27.711Z,1792.00
2018-12-23T11:16:27.720Z,1628.00
2018-12-23T11:17:27.679Z,1532.00
2018-12-23T11:18:27.678Z,1440.00
2018-12-23T11:19:27.685Z,1772.00
2018-12-23T11:20:27.660Z,1892.00
2018-12-23T11:21:27.646Z,1884.00
2018-12-23T11:22:27.634Z,1552.00
2018-12-23T11:23:27.624Z,1928.00
2018-12-23T11:24:27.637Z,2024.00
2018-12-23T11:25:27.620Z,2180.00
2018-12-23T11:26:27.591Z,2460.00
2018-12-23T11:27:27.577Z,2460.00
2018-12-23T11:28:27.570Z,2428.00
2018-12-23T11:29:31.604Z,2532.00
2018-12-23T11:30:27.541Z,2352.00
2018-12-23T11:31:27.533Z,2292.00
2018-12-23T11:32:27.521Z,2244.00
2018-12-23T11:33:27.512Z,2064.00
2018-12-23T11:34:27.508Z,2060.00
2018-12-23T11:35:27.581Z,1900.00
2018-12-23T11:36:27.475Z,2144.00
2018-12-23T11:37:27.463Z,2316.00
2018-12-23T11:38:35.263Z,2192.00
2018-12-23T11:39:28.456Z,1808.00
2018-12-23T11:40:27.434Z,1560.00
2018-12-23T11:41:27.405Z,1568.00
2018-12-23T11:42:27.411Z,1720.00
2018-12-23T11:43:27.458Z,1688.00
2018-12-23T11:44:27.403Z,1456.00
2018-12-23T11:45:27.390Z,1240.00
2018-12-23T11:46:27.368Z,1796.00
2018-12-23T11:47:27.353Z,2012.00
2018-12-23T11:48:27.343Z,2048.00
2018-12-23T11:49:27.344Z,2132.00
2018-12-23T11:50:27.320Z,2312.00
2018-12-23T11:51:27.308Z,2016.00
2018-12-23T11:52:27.291Z,1712.00
2018-12-23T11:53:27.289Z,1880.00
2018-12-23T11:54:27.288Z,2312.00
2018-12-23T11:55:27.283Z,2252.00
2018-12-23T11:56:27.287Z,2476.00
2018-12-23T11:57:27.246Z,2140.00
2018-12-23T11:58:27.238Z,1960.00
2018-12-23T11:59:27.237Z,2056.00
2018-12-23T12:00:27.212Z,1828.00
2018-12-23T12:01:27.196Z,1636.00
2018-12-23T12:02:27.184Z,1912.00
2018-12-23T12:03:27.177Z,2244.00
2018-12-23T12:04:27.174Z,2172.00
2018-12-23T12:05:27.156Z,2184.00
2018-12-23T12:06:27.140Z,1928.00
2018-12-23T12:07:27.124Z,1968.00
2018-12-23T12:08:27.118Z,1716.00
2018-12-23T12:09:27.122Z,2040.00
2018-12-23T12:10:27.098Z,2220.00
2018-12-23T12:11:27.087Z,2208.00
2018-12-23T12:12:27.076Z,2192.00
2018-12-23T12:13:27.065Z,2160.00
2018-12-23T12:14:27.068Z,2180.00
2018-12-23T12:15:27.043Z,2276.00
2018-12-23T12:16:27.030Z,2268.00
2018-12-23T12:17:27.023Z,2176.00
2018-12-23T12:18:27.008Z,2200.00
2018-12-23T12:19:27.010Z,2140.00
2018-12-23T12:20:26.989Z,2208.00
2018-12-23T12:21:26.976Z,2256.00
2018-12-23T12:22:26.964Z,2268.00
2018-12-23T12:23:26.952Z,2216.00
2018-12-23T12:24:26.956Z,2360.00
2018-12-23T12:25:26.930Z,2372.00
2018-12-23T12:26:26.923Z,2412.00
2018-12-23T12:27:26.908Z,2412.00
2018-12-23T12:28:26.901Z,2348.00
2018-12-23T12:29:26.901Z,2264.00
2018-12-23T12:30:26.872Z,2176.00
2018-12-23T12:31:26.863Z,2024.00
2018-12-23T12:32:26.850Z,1968.00
2018-12-23T12:33:26.835Z,2020.00
2018-12-23T12:34:26.844Z,2016.00
2018-12-23T12:35:26.822Z,2108.00
2018-12-23T12:36:26.805Z,2096.00
2018-12-23T12:37:26.798Z,2136.00
2018-12-23T12:38:26.786Z,1888.00
2018-12-23T12:39:30.878Z,1996.00
2018-12-23T12:40:26.764Z,2028.00
2018-12-23T12:41:26.753Z,1836.00
2018-12-23T12:42:26.729Z,1824.00
2018-12-23T12:43:26.731Z,1712.00
2018-12-23T12:44:26.735Z,1604.00
2018-12-23T12:45:26.724Z,1392.00
2018-12-23T12:46:26.697Z,1312.00
2018-12-23T12:47:26.690Z,1448.00
2018-12-23T12:48:26.676Z,1404.00
2018-12-23T12:49:26.697Z,1276.00
2018-12-23T12:50:26.655Z,1276.00
2018-12-23T12:51:26.644Z,1252.00
2018-12-23T12:52:26.634Z,1276.00
2018-12-23T12:53:26.628Z,1520.00
2018-12-23T12:54:26.613Z,1668.00
2018-12-23T12:55:26.611Z,1524.00
2018-12-23T12:56:26.596Z,1492.00
2018-12-23T12:57:26.577Z,1444.00
2018-12-23T12:58:26.569Z,1496.00
2018-12-23T12:59:26.557Z,1448.00
2018-12-23T13:00:26.543Z,1472.00
2018-12-23T13:01:26.535Z,1472.00
2018-12-23T13:02:26.521Z,1436.00
2018-12-23T13:03:26.509Z,1372.00
2018-12-23T13:04:26.499Z,1404.00
2018-12-23T13:05:26.503Z,1268.00
2018-12-23T13:06:26.483Z,1084.00
2018-12-23T13:07:26.482Z,1008.00
2018-12-23T13:08:26.459Z,1016.00
2018-12-23T13:09:26.451Z,1016.00
2018-12-23T13:10:26.448Z,976.00
2018-12-23T13:11:26.431Z,1096.00
2018-12-23T13:12:26.411Z,1028.00
2018-12-23T13:13:26.401Z,976.00
2018-12-23T13:14:26.390Z,1060.00
2018-12-23T13:15:26.445Z,1180.00
2018-12-23T13:16:26.381Z,1136.00
2018-12-23T13:17:26.357Z,1052.00
2018-12-23T13:18:26.346Z,932.00
2018-12-23T13:19:26.322Z,984.00
2018-12-23T13:20:28.309Z,1020.00
2018-12-23T13:21:26.311Z,1000.00
2018-12-23T13:22:26.300Z,976.00
2018-12-23T13:23:26.288Z,932.00
2018-12-23T13:24:26.278Z,952.00
2018-12-23T13:25:26.282Z,972.00
2018-12-23T13:26:26.254Z,872.00
2018-12-23T13:27:26.246Z,940.00
2018-12-23T13:28:26.245Z,884.00
2018-12-23T13:29:26.227Z,960.00
2018-12-23T13:30:26.221Z,952.00
2018-12-23T13:31:26.202Z,996.00
2018-12-23T13:32:26.195Z,936.00
2018-12-23T13:33:26.180Z,816.00
2018-12-23T13:34:26.169Z,700.00
2018-12-23T13:35:26.168Z,604.00
2018-12-23T13:36:26.149Z,576.00
2018-12-23T13:37:26.134Z,620.00
2018-12-23T13:38:26.122Z,692.00
2018-12-23T13:39:26.117Z,740.00
2018-12-23T13:40:26.119Z,736.00
2018-12-23T13:41:26.084Z,884.00
2018-12-23T13:42:26.079Z,860.00
2018-12-23T13:43:26.067Z,556.00
2018-12-23T13:44:26.055Z,484.00
2018-12-23T13:45:26.056Z,448.00
2018-12-23T13:46:26.034Z,352.00
2018-12-23T13:47:26.022Z,368.00
2018-12-23T13:48:26.011Z,428.00
2018-12-23T13:49:26.006Z,400.00
2018-12-23T13:50:26.012Z,384.00
2018-12-23T13:51:25.976Z,620.00
2018-12-23T13:52:25.963Z,592.00
2018-12-23T13:53:25.953Z,440.00
2018-12-23T13:54:25.942Z,332.00
2018-12-23T13:55:25.948Z,256.00
2018-12-23T13:56:25.919Z,236.00
2018-12-23T13:57:25.907Z,212.00
2018-12-23T13:58:25.897Z,256.00
2018-12-23T13:59:25.887Z,340.00
2018-12-23T14:00:25.887Z,432.00
2018-12-23T14:01:25.868Z,536.00
2018-12-23T14:02:25.855Z,556.00
2018-12-23T14:03:25.846Z,580.00
2018-12-23T14:04:25.832Z,580.00
2018-12-23T14:05:25.834Z,568.00
2018-12-23T14:06:25.810Z,548.00
2018-12-23T14:07:25.799Z,476.00
2018-12-23T14:08:25.787Z,376.00
2018-12-23T14:09:25.776Z,292.00
2018-12-23T14:10:25.779Z,288.00
2018-12-23T14:11:25.755Z,300.00
2018-12-23T14:12:25.746Z,280.00
2018-12-23T14:13:25.731Z,268.00
2018-12-23T14:14:25.720Z,292.00
2018-12-23T14:15:25.725Z,308.00
2018-12-23T14:16:25.697Z,332.00
2018-12-23T14:17:25.686Z,324.00
2018-12-23T14:18:25.677Z,288.00
2018-12-23T14:19:25.663Z,252.00
2018-12-23T14:20:25.668Z,216.00
2018-12-23T14:21:25.645Z,232.00
2018-12-23T14:22:25.630Z,248.00
2018-12-23T14:23:25.623Z,244.00
2018-12-23T14:24:25.607Z,248.00
2018-12-23T14:25:25.612Z,260.00
2018-12-23T14:26:25.598Z,248.00
2018-12-23T14:27:25.569Z,176.00
2018-12-23T14:28:25.562Z,164.00
2018-12-23T14:29:25.552Z,176.00
2018-12-23T14:30:25.556Z,188.00
2018-12-23T14:31:25.533Z,196.00
2018-12-23T14:32:25.517Z,216.00
2018-12-23T14:33:25.509Z,220.00
2018-12-23T14:34:25.522Z,216.00
2018-12-23T14:35:25.515Z,212.00
2018-12-23T14:36:25.494Z,200.00
2018-12-23T14:37:25.468Z,188.00
2018-12-23T14:38:25.465Z,176.00
2018-12-23T14:39:28.219Z,168.00
2018-12-23T14:40:26.270Z,164.00
2018-12-23T14:41:25.414Z,160.00
2018-12-23T14:42:25.421Z,156.00
2018-12-23T14:43:25.404Z,152.00
2018-12-23T14:44:25.433Z,144.00
2018-12-23T14:45:25.418Z,132.00
2018-12-23T14:46:25.363Z,124.00
2018-12-23T14:47:25.357Z,112.00
2018-12-23T14:48:25.351Z,104.00
2018-12-23T14:49:25.363Z,104.00
2018-12-23T14:50:25.349Z,92.00
2018-12-23T14:51:25.335Z,88.00
2018-12-23T14:52:25.311Z,80.00
2018-12-23T14:53:25.294Z,76.00
2018-12-23T14:54:25.281Z,68.00
2018-12-23T14:55:25.350Z,60.00
2018-12-23T14:56:25.254Z,56.00
2018-12-23T14:57:25.251Z,48.00
2018-12-23T14:58:25.242Z,44.00
2018-12-23T14:59:25.229Z,40.00
2018-12-23T15:00:25.217Z,36.00
2018-12-23T15:01:25.218Z,32.00
2018-12-23T15:02:25.197Z,32.00
2018-12-23T15:03:25.183Z,28.00
2018-12-23T15:04:25.168Z,28.00
2018-12-23T15:05:25.169Z,24.00
2018-12-23T15:06:25.170Z,20.00
2018-12-23T15:07:25.133Z,20.00
2018-12-23T15:08:25.132Z,16.00
2018-12-23T15:09:25.109Z,20.00
2018-12-23T15:10:25.100Z,16.00
2018-12-23T15:11:25.135Z,16.00
2018-12-23T15:12:25.078Z,16.00
2018-12-23T15:13:25.071Z,12.00
2018-12-23T15:14:25.065Z,12.00
2018-12-23T15:15:25.050Z,12.00
2018-12-23T15:16:25.057Z,12.00
2018-12-23T15:17:25.028Z,12.00
2018-12-23T15:18:25.018Z,12.00
2018-12-23T15:19:25.003Z,8.00
2018-12-23T15:20:24.998Z,20.00
2018-12-23T15:21:24.981Z,24.00
2018-12-23T15:22:24.981Z,20.00
2018-12-23T15:23:24.967Z,20.00
2018-12-23T15:24:24.951Z,16.00
2018-12-23T15:25:24.937Z,20.00
2018-12-23T15:26:24.944Z,16.00
2018-12-23T15:27:24.917Z,16.00
2018-12-23T15:28:24.912Z,16.00
2018-12-23T15:29:24.915Z,12.00
2018-12-23T15:30:24.876Z,12.00
2018-12-23T15:31:24.919Z,16.00
2018-12-23T15:32:24.862Z,16.00
2018-12-23T15:33:24.849Z,16.00
2018-12-23T15:34:24.847Z,12.00
2018-12-23T15:35:24.827Z,12.00
2018-12-23T15:36:24.837Z,12.00
2018-12-23T15:37:24.814Z,12.00
2018-12-23T15:38:24.805Z,12.00
2018-12-23T15:39:24.787Z,12.00
2018-12-23T15:40:24.774Z,12.00
2018-12-23T15:41:24.778Z,12.00
2018-12-23T15:42:24.747Z,12.00
2018-12-23T15:43:24.737Z,16.00
2018-12-23T15:44:24.730Z,12.00
2018-12-23T15:45:24.721Z,16.00
2018-12-23T15:46:24.732Z,16.00
2018-12-23T15:47:24.687Z,12.00
2018-12-23T15:48:24.684Z,16.00
2018-12-23T15:49:24.675Z,16.00
2018-12-23T15:50:24.669Z,12.00
2018-12-23T15:51:24.686Z,16.00
2018-12-23T15:52:24.644Z,16.00
2018-12-23T15:53:24.639Z,16.00
2018-12-23T15:54:24.622Z,12.00
2018-12-23T15:55:24.610Z,12.00
2018-12-23T15:56:24.616Z,16.00
2018-12-23T15:57:24.586Z,12.00
2018-12-23T15:58:24.579Z,16.00
2018-12-23T15:59:24.564Z,16.00
2018-12-23T16:00:24.557Z,16.00
2018-12-23T16:01:24.567Z,16.00
2018-12-23T16:02:24.528Z,16.00
2018-12-23T16:03:24.523Z,16.00
2018-12-23T16:04:24.516Z,16.00
2018-12-23T16:05:24.498Z,16.00
2018-12-23T16:06:24.501Z,16.00
2018-12-23T16:07:24.484Z,16.00
2018-12-23T16:08:24.463Z,16.00
2018-12-23T16:09:24.455Z,16.00
2018-12-23T16:10:24.447Z,16.00
2018-12-23T16:11:24.453Z,16.00
2018-12-23T16:12:24.456Z,16.00
2018-12-23T16:13:24.410Z,16.00
2018-12-23T16:14:24.386Z,16.00
2018-12-23T16:15:24.379Z,16.00
2018-12-23T16:16:24.395Z,16.00
2018-12-23T16:17:24.368Z,16.00
2018-12-23T16:18:24.350Z,16.00
2018-12-23T16:19:24.343Z,16.00
2018-12-23T16:20:24.331Z,16.00
2018-12-23T16:21:24.362Z,12.00
2018-12-23T16:22:24.309Z,16.00
2018-12-23T16:23:24.294Z,16.00
2018-12-23T16:24:24.284Z,12.00
2018-12-23T16:25:24.284Z,16.00
2018-12-23T16:26:24.299Z,12.00
2018-12-23T16:27:24.253Z,16.00
2018-12-23T16:28:24.272Z,12.00
2018-12-23T16:29:24.217Z,12.00
2018-12-23T16:30:24.229Z,16.00
2018-12-23T16:31:24.227Z,16.00
2018-12-23T16:32:24.196Z,16.00
2018-12-23T16:33:24.197Z,16.00
2018-12-23T16:34:24.173Z,16.00
2018-12-23T16:35:24.161Z,16.00
2018-12-23T16:36:24.186Z,16.00
2018-12-23T16:37:24.142Z,16.00
2018-12-23T16:38:24.146Z,16.00
2018-12-23T16:39:24.117Z,16.00
2018-12-23T16:40:24.105Z,12.00
2018-12-23T16:41:24.122Z,16.00
2018-12-23T16:42:24.091Z,12.00
2018-12-23T16:43:24.076Z,12.00
2018-12-23T16:44:24.063Z,12.00
2018-12-23T16:45:24.056Z,16.00
2018-12-23T16:46:24.059Z,12.00
2018-12-23T16:47:24.051Z,12.00
2018-12-23T16:48:24.012Z,16.00
2018-12-23T16:49:24.033Z,16.00
2018-12-23T16:50:24.012Z,16.00
2018-12-23T16:51:24.003Z,12.00
2018-12-23T16:52:23.994Z,12.00
2018-12-23T16:53:23.984Z,12.00
2018-12-23T16:54:23.949Z,12.00
2018-12-23T16:55:23.944Z,16.00
2018-12-23T16:56:23.952Z,16.00
2018-12-23T16:57:23.917Z,12.00
2018-12-23T16:58:23.907Z,16.00
2018-12-23T16:59:23.901Z,16.00
2018-12-23T17:00:23.901Z,16.00
2018-12-23T17:01:23.894Z,12.00
2018-12-23T17:02:23.870Z,16.00
2018-12-23T17:03:23.858Z,12.00
2018-12-23T17:04:23.846Z,16.00
2018-12-23T17:05:23.844Z,12.00
2018-12-23T17:06:25.779Z,16.00
2018-12-23T17:07:23.830Z,12.00
2018-12-23T17:08:23.796Z,16.00
2018-12-23T17:09:23.819Z,16.00
2018-12-23T17:10:23.781Z,16.00
2018-12-23T17:11:23.760Z,12.00
2018-12-23T17:12:23.790Z,12.00
2018-12-23T17:13:23.754Z,12.00
2018-12-23T17:14:23.733Z,16.00
2018-12-23T17:15:23.737Z,16.00
2018-12-23T17:16:23.715Z,16.00
2018-12-23T17:17:23.730Z,16.00
2018-12-23T17:18:23.684Z,12.00
2018-12-23T17:19:23.675Z,16.00
2018-12-23T17:20:23.663Z,12.00
2018-12-23T17:21:23.658Z,12.00
2018-12-23T17:22:23.663Z,16.00
2018-12-23T17:23:23.626Z,16.00
2018-12-23T17:24:23.617Z,12.00
2018-12-23T17:25:23.614Z,16.00
2018-12-23T17:26:23.601Z,12.00
2018-12-23T17:27:23.612Z,12.00
2018-12-23T17:28:25.246Z,16.00
2018-12-23T17:29:23.756Z,12.00
2018-12-23T17:30:23.554Z,16.00
2018-12-23T17:31:23.534Z,12.00
2018-12-23T17:32:24.988Z,12.00
2018-12-23T17:33:23.796Z,16.00